createdAt,value
2023-04-15T00:01:00.372Z,100.00
2023-04-15T00:03:31.433Z,100.00
2023-04-15T00:06:04.480Z,100.00
2023-04-15T00:08:34.875Z,100.00
2023-04-15T00:11:06.099Z,100.00
2023-04-15T00:13:36.816Z,100.00
2023-04-15T00:16:07.659Z,100.00
2023-04-15T00:18:38.007Z,100.00
2023-04-15T00:21:11.032Z,100.00
2023-04-15T00:23:41.315Z,100.00
2023-04-15T00:26:11.524Z,100.00
2023-04-15T00:28:42.766Z,100.00
2023-04-15T00:31:13.046Z,100.00
2023-04-15T00:33:43.870Z,100.00
2023-04-15T00:36:16.795Z,100.00
2023-04-15T00:38:47.390Z,100.00
2023-04-15T00:41:18.082Z,100.00
2023-04-15T00:43:48.326Z,100.00
2023-04-15T00:46:20.765Z,100.00
2023-04-15T00:48:51.409Z,100.00
2023-04-15T00:51:24.714Z,100.00
2023-04-15T00:53:55.026Z,100.00
2023-04-15T00:56:26.167Z,100.00
2023-04-15T00:58:57.825Z,100.00
2023-04-15T01:01:29.019Z,100.00
2023-04-15T01:04:00.598Z,100.00
2023-04-15T01:06:33.754Z,100.00
2023-04-15T01:09:04.177Z,100.00
2023-04-15T01:11:36.017Z,100.00
2023-04-15T01:14:07.506Z,100.00
2023-04-15T01:16:40.018Z,100.00
2023-04-15T01:19:12.217Z,100.00
2023-04-15T01:21:45.286Z,100.00
2023-04-15T01:24:18.544Z,100.00
2023-04-15T01:26:51.184Z,100.00
2023-04-15T01:29:21.382Z,100.00
2023-04-15T01:31:55.174Z,100.00
2023-04-15T01:34:25.954Z,100.00
2023-04-15T01:36:57.218Z,100.00
2023-04-15T01:39:27.129Z,100.00
2023-04-15T01:42:02.548Z,100.00
2023-04-15T01:44:32.408Z,100.00
2023-04-15T01:47:02.417Z,100.00
2023-04-15T01:49:32.359Z,100.00
2023-04-15T01:52:03.745Z,100.00
2023-04-15T01:54:33.648Z,100.00
2023-04-15T01:57:06.466Z,100.00
2023-04-15T01:59:36.535Z,100.00
2023-04-15T02:02:06.784Z,100.00
2023-04-15T02:04:36.739Z,100.00
2023-04-15T02:07:07.293Z,100.00
2023-04-15T02:09:38.844Z,100.00
2023-04-15T02:12:13.730Z,100.00
2023-04-15T02:14:43.606Z,100.00
2023-04-15T02:17:13.471Z,100.00
2023-04-15T02:19:45.370Z,100.00
2023-04-15T02:22:18.989Z,100.00
2023-04-15T02:24:49.736Z,100.00
2023-04-15T02:27:22.741Z,100.00
2023-04-15T02:29:53.696Z,100.00
2023-04-15T02:32:24.635Z,100.00
2023-04-15T02:34:54.614Z,100.00
2023-04-15T02:37:27.341Z,100.00
2023-04-15T02:39:58.719Z,100.00
2023-04-15T02:42:32.058Z,100.00
2023-04-15T02:45:03.929Z,100.00
2023-04-15T02:47:37.197Z,100.00
2023-04-15T02:50:12.797Z,100.00
2023-04-15T02:52:44.845Z,100.00
2023-04-15T02:55:14.874Z,100.00
2023-04-15T02:57:47.384Z,100.00
2023-04-15T03:00:17.709Z,100.00
2023-04-15T03:02:52.544Z,100.00
2023-04-15T03:05:24.722Z,100.00
2023-04-15T03:07:55.065Z,100.00
2023-04-15T03:10:25.674Z,100.00
2023-04-15T03:12:58.155Z,100.00
2023-04-15T03:15:28.684Z,100.00
2023-04-15T03:17:58.651Z,100.00
2023-04-15T03:20:28.648Z,100.00
2023-04-15T03:22:58.672Z,100.00
2023-04-15T03:25:28.998Z,100.00
2023-04-15T03:28:02.992Z,100.00
2023-04-15T03:30:32.934Z,100.00
2023-04-15T03:33:03.087Z,100.00
2023-04-15T03:35:33.111Z,100.00
2023-04-15T03:38:03.054Z,100.00
2023-04-15T03:40:33.260Z,100.00
2023-04-15T03:43:05.849Z,100.00
2023-04-15T03:45:35.976Z,100.00
2023-04-15T03:48:16.449Z,100.00
2023-04-15T03:50:48.480Z,100.00
2023-04-15T03:53:18.685Z,100.00
2023-04-15T03:55:48.506Z,100.00
2023-04-15T03:58:20.990Z,100.00
2023-04-15T04:00:50.896Z,100.00
2023-04-15T04:03:21.489Z,100.00
2023-04-15T04:05:51.661Z,100.00
2023-04-15T04:08:22.244Z,100.00
2023-04-15T04:10:52.074Z,100.00
2023-04-15T04:13:24.620Z,100.00
2023-04-15T04:15:54.522Z,100.00
2023-04-15T04:18:24.779Z,100.00
2023-04-15T04:20:54.724Z,100.00
2023-04-15T04:23:24.666Z,100.00
2023-04-15T04:25:54.753Z,100.00
2023-04-15T04:28:27.214Z,100.00
2023-04-15T04:30:57.168Z,100.00
2023-04-15T04:33:27.392Z,100.00
2023-04-15T04:35:57.246Z,100.00
2023-04-15T04:38:27.132Z,100.00
2023-04-15T04:40:57.039Z,100.00
2023-04-15T04:43:29.876Z,100.00
2023-04-15T04:45:59.963Z,100.00
2023-04-15T04:48:29.835Z,100.00
2023-04-15T04:50:59.911Z,100.00
2023-04-15T04:53:30.319Z,100.00
2023-04-15T04:56:00.257Z,100.00
2023-04-15T04:58:32.737Z,100.00
2023-04-15T05:01:03.458Z,100.00
2023-04-15T05:03:34.308Z,100.00
2023-04-15T05:06:06.700Z,100.00
2023-04-15T05:08:37.326Z,100.00
2023-04-15T05:11:09.192Z,100.00
2023-04-15T05:13:41.683Z,100.00
2023-04-15T05:16:11.878Z,100.00
2023-04-15T05:18:41.914Z,100.00
2023-04-15T05:21:12.164Z,100.00
2023-04-15T05:23:42.567Z,100.00
2023-04-15T05:26:12.458Z,100.00
2023-04-15T05:28:44.960Z,100.00
2023-04-15T05:31:14.923Z,100.00
2023-04-15T05:33:44.947Z,100.00
2023-04-15T05:36:14.966Z,100.00
2023-04-15T05:38:44.956Z,100.00
2023-04-15T05:41:17.784Z,100.00
2023-04-15T05:43:52.234Z,100.00
2023-04-15T05:46:22.818Z,100.00
2023-04-15T05:48:54.700Z,100.00
2023-04-15T05:51:26.017Z,100.00
2023-04-15T05:53:56.679Z,100.00
2023-04-15T05:56:27.277Z,100.00
2023-04-15T05:59:00.046Z,100.00
2023-04-15T06:01:30.632Z,100.00
2023-04-15T06:04:00.710Z,100.00
2023-04-15T06:06:34.850Z,100.00
2023-04-15T06:09:04.786Z,100.00
2023-04-15T06:11:34.781Z,100.00
2023-04-15T06:14:07.366Z,100.00
2023-04-15T06:16:37.850Z,100.00
2023-04-15T06:19:07.946Z,100.00
2023-04-15T06:21:37.839Z,100.00
2023-04-15T06:24:08.268Z,100.00
2023-04-15T06:26:38.209Z,87.43
2023-04-15T06:29:10.789Z,91.73
2023-04-15T06:31:40.783Z,91.13
2023-04-15T06:34:11.352Z,73.14
2023-04-15T06:36:41.309Z,74.77
2023-04-15T06:39:11.201Z,70.62
2023-04-15T06:41:41.126Z,59.52
2023-04-15T06:44:13.794Z,56.01
2023-04-15T06:46:43.667Z,56.65
2023-04-15T06:49:13.905Z,56.03
2023-04-15T06:51:45.629Z,54.85
2023-04-15T06:54:15.601Z,54.14
2023-04-15T06:56:45.780Z,54.22
2023-04-15T06:59:18.376Z,54.72
2023-04-15T07:01:48.297Z,57.57
2023-04-15T07:04:18.266Z,58.16
2023-04-15T07:06:48.177Z,59.85
2023-04-15T07:09:18.351Z,60.39
2023-04-15T07:11:48.948Z,63.73
2023-04-15T07:14:21.716Z,65.95
2023-04-15T07:16:51.664Z,69.58
2023-04-15T07:19:21.984Z,71.54
2023-04-15T07:21:52.613Z,74.87
2023-04-15T07:24:23.460Z,77.61
2023-04-15T07:26:53.331Z,77.99
2023-04-15T07:29:25.839Z,78.75
2023-04-15T07:31:57.335Z,79.73
2023-04-15T07:34:27.759Z,77.57
2023-04-15T07:36:58.167Z,72.55
2023-04-15T07:39:29.618Z,67.37
2023-04-15T07:41:59.764Z,61.06
2023-04-15T07:44:32.587Z,58.94
2023-04-15T07:47:02.449Z,56.33
2023-04-15T07:49:32.498Z,55.58
2023-04-15T07:52:02.497Z,52.36
2023-04-15T07:54:32.424Z,51.53
2023-04-15T07:57:03.320Z,49.74
2023-04-15T07:59:36.041Z,47.40
2023-04-15T08:02:06.613Z,46.66
2023-04-15T08:04:36.760Z,44.80
2023-04-15T08:07:07.290Z,45.04
2023-04-15T08:09:37.182Z,45.21
2023-04-15T08:12:09.777Z,44.83
2023-04-15T08:14:42.651Z,43.26
2023-04-15T08:17:12.894Z,40.13
2023-04-15T08:19:46.300Z,38.35
2023-04-15T08:22:18.442Z,38.28
2023-04-15T08:24:49.549Z,37.07
2023-04-15T08:27:19.953Z,36.65
2023-04-15T08:29:52.765Z,36.55
2023-04-15T08:32:23.069Z,34.70
2023-04-15T08:34:53.491Z,33.30
2023-04-15T08:37:23.781Z,33.28
2023-04-15T08:39:54.245Z,32.01
2023-04-15T08:42:26.822Z,33.67
2023-04-15T08:45:00.971Z,33.15
2023-04-15T08:47:33.123Z,31.91
2023-04-15T08:50:06.401Z,31.63
2023-04-15T08:52:36.672Z,31.46
2023-04-15T08:55:07.325Z,31.58
2023-04-15T08:57:40.000Z,32.22
2023-04-15T09:00:14.263Z,31.94
2023-04-15T09:02:44.710Z,31.22
2023-04-15T09:05:14.729Z,29.98
2023-04-15T09:07:44.714Z,28.35
2023-04-15T09:10:15.564Z,27.01
2023-04-15T09:12:45.487Z,25.48
2023-04-15T09:15:19.132Z,27.33
2023-04-15T09:17:49.447Z,26.25
2023-04-15T09:20:21.516Z,25.71
2023-04-15T09:22:52.747Z,26.30
2023-04-15T09:25:32.195Z,27.40
2023-04-15T09:28:04.836Z,28.84
2023-04-15T09:30:37.970Z,30.05
2023-04-15T09:33:09.010Z,33.93
2023-04-15T09:35:39.288Z,34.71
2023-04-15T09:38:10.920Z,34.66
2023-04-15T09:40:44.022Z,33.05
2023-04-15T09:43:14.705Z,32.10
2023-04-15T09:45:51.897Z,33.65
2023-04-15T09:48:24.733Z,34.96
2023-04-15T09:50:54.984Z,37.23
2023-04-15T09:53:27.555Z,37.55
2023-04-15T09:56:00.956Z,39.17
2023-04-15T09:58:33.677Z,37.75
2023-04-15T10:01:09.469Z,37.33
2023-04-15T10:03:39.703Z,37.28
2023-04-15T10:06:10.161Z,35.61
2023-04-15T10:08:40.212Z,35.55
2023-04-15T10:11:10.796Z,35.32
2023-04-15T10:13:41.559Z,37.44
2023-04-15T10:16:17.132Z,40.14
2023-04-15T10:18:49.003Z,40.13
2023-04-15T10:21:19.507Z,41.67
2023-04-15T10:23:50.221Z,42.54
2023-04-15T10:26:20.568Z,42.14
2023-04-15T10:28:50.619Z,40.68
2023-04-15T10:31:23.693Z,37.68
2023-04-15T10:33:55.164Z,35.83
2023-04-15T10:36:25.529Z,35.95
2023-04-15T10:38:55.394Z,37.19
2023-04-15T10:41:31.391Z,37.62
2023-04-15T10:44:04.993Z,36.65
2023-04-15T10:46:42.731Z,37.07
2023-04-15T10:49:14.950Z,37.67
2023-04-15T10:51:46.373Z,36.24
2023-04-15T10:54:19.118Z,38.08
2023-04-15T10:56:54.285Z,37.77
2023-04-15T10:59:24.935Z,38.34
2023-04-15T11:02:00.439Z,38.23
2023-04-15T11:04:54.838Z,38.36
2023-04-15T11:07:43.721Z,38.13
2023-04-15T11:10:55.807Z,39.63
2023-04-15T11:13:31.827Z,40.15
2023-04-15T11:16:03.913Z,39.29
2023-04-15T11:18:37.247Z,39.71
2023-04-15T11:21:09.632Z,38.48
2023-04-15T11:23:44.381Z,38.40
2023-04-15T11:26:15.019Z,39.23
2023-04-15T11:28:47.882Z,39.05
2023-04-15T11:31:20.292Z,39.56
2023-04-15T11:33:58.315Z,39.08
2023-04-15T11:36:30.293Z,39.11
2023-04-15T11:39:01.459Z,38.70
2023-04-15T11:41:31.422Z,39.21
2023-04-15T11:44:01.523Z,38.06
2023-04-15T11:46:33.424Z,35.69
2023-04-15T11:49:06.042Z,36.17
2023-04-15T11:51:37.199Z,36.69
2023-04-15T11:54:07.483Z,36.99
2023-04-15T11:56:37.579Z,38.05
2023-04-15T11:59:07.633Z,39.95
2023-04-15T12:01:39.569Z,41.86
2023-04-15T12:04:17.849Z,43.71
2023-04-15T12:06:49.045Z,43.45
2023-04-15T12:09:20.504Z,61.08
2023-04-15T12:11:53.065Z,81.96
2023-04-15T12:14:28.444Z,100.00
2023-04-15T12:17:02.210Z,100.00
2023-04-15T12:19:38.974Z,100.00
2023-04-15T12:22:12.039Z,100.00
2023-04-15T12:24:44.033Z,97.70
2023-04-15T12:27:15.137Z,100.00
2023-04-15T12:29:45.964Z,92.66
2023-04-15T12:32:17.349Z,94.15
2023-04-15T12:34:54.576Z,63.96
2023-04-15T12:37:26.236Z,69.92
2023-04-15T12:39:56.735Z,91.68
2023-04-15T12:42:26.573Z,98.70
2023-04-15T12:44:57.054Z,100.00
2023-04-15T12:47:26.964Z,100.00
2023-04-15T12:49:59.462Z,100.00
2023-04-15T12:52:29.314Z,100.00
2023-04-15T12:54:59.214Z,100.00
2023-04-15T12:57:29.189Z,100.00
2023-04-15T12:59:59.102Z,100.00
2023-04-15T13:02:29.607Z,100.00
2023-04-15T13:05:02.300Z,100.00
2023-04-15T13:07:32.171Z,100.00
2023-04-15T13:10:02.033Z,100.00
2023-04-15T13:12:33.134Z,100.00
2023-04-15T13:15:05.468Z,100.00
2023-04-15T13:17:35.594Z,100.00
2023-04-15T13:20:09.065Z,100.00
2023-04-15T13:22:38.964Z,100.00
2023-04-15T13:25:10.557Z,100.00
2023-04-15T13:27:40.675Z,100.00
2023-04-15T13:30:12.130Z,100.00
2023-04-15T13:32:42.088Z,100.00
2023-04-15T13:35:14.936Z,100.00
2023-04-15T13:37:45.037Z,100.00
2023-04-15T13:40:15.061Z,100.00
2023-04-15T13:42:45.162Z,100.00
2023-04-15T13:45:15.086Z,92.36
2023-04-15T13:47:45.060Z,86.61
2023-04-15T13:50:17.532Z,94.43
2023-04-15T13:52:47.750Z,94.03
2023-04-15T13:55:20.286Z,82.83
2023-04-15T13:57:51.012Z,80.61
2023-04-15T14:00:21.369Z,78.81
2023-04-15T14:02:52.133Z,75.93
2023-04-15T14:05:25.062Z,77.84
2023-04-15T14:07:55.460Z,81.52
2023-04-15T14:10:25.765Z,80.79
2023-04-15T14:12:56.212Z,84.85
2023-04-15T14:15:26.483Z,65.86
2023-04-15T14:17:56.753Z,58.29
2023-04-15T14:20:29.628Z,58.32
2023-04-15T14:22:59.871Z,58.12
2023-04-15T14:25:33.845Z,57.49
2023-04-15T14:28:04.567Z,57.47
2023-04-15T14:30:35.223Z,51.12
2023-04-15T14:33:05.601Z,54.11
2023-04-15T14:35:38.554Z,53.21
2023-04-15T14:38:11.510Z,51.97
2023-04-15T14:40:42.039Z,54.69
2023-04-15T14:43:12.315Z,54.36
2023-04-15T14:45:44.576Z,53.07
2023-04-15T14:48:15.767Z,53.98
2023-04-15T14:50:48.745Z,56.19
2023-04-15T14:53:18.980Z,52.27
2023-04-15T14:55:49.242Z,52.56
2023-04-15T14:58:19.514Z,53.45
2023-04-15T15:00:49.764Z,53.88
2023-04-15T15:03:20.104Z,54.31
2023-04-15T15:05:53.062Z,64.99
2023-04-15T15:08:23.565Z,60.79
2023-04-15T15:10:54.404Z,58.97
2023-04-15T15:13:25.524Z,60.83
2023-04-15T15:15:56.033Z,62.09
2023-04-15T15:18:26.352Z,62.62
2023-04-15T15:20:59.244Z,62.44
2023-04-15T15:23:29.502Z,65.48
2023-04-15T15:26:01.543Z,67.27
2023-04-15T15:28:31.950Z,69.54
2023-04-15T15:31:02.174Z,74.58
2023-04-15T15:33:32.966Z,75.47
2023-04-15T15:36:06.062Z,88.13
2023-04-15T15:38:36.370Z,83.66
2023-04-15T15:41:06.956Z,85.86
2023-04-15T15:43:37.160Z,91.40
2023-04-15T15:46:07.563Z,84.89
2023-04-15T15:48:38.087Z,87.50
2023-04-15T15:51:11.051Z,93.44
2023-04-15T15:53:41.549Z,93.18
2023-04-15T15:56:12.060Z,100.00
2023-04-15T15:58:43.899Z,98.28
2023-04-15T16:01:14.378Z,99.50
2023-04-15T16:03:44.764Z,100.00
2023-04-15T16:06:17.762Z,100.00
2023-04-15T16:08:47.993Z,98.89
2023-04-15T16:11:18.378Z,99.49
2023-04-15T16:13:48.665Z,97.49
2023-04-15T16:16:18.921Z,91.81
2023-04-15T16:18:49.203Z,100.00
2023-04-15T16:21:23.572Z,100.00
2023-04-15T16:23:53.800Z,100.00
2023-04-15T16:26:24.078Z,100.00
2023-04-15T16:28:54.264Z,100.00
2023-04-15T16:31:24.567Z,100.00
2023-04-15T16:33:54.810Z,100.00
2023-04-15T16:36:27.707Z,100.00
2023-04-15T16:38:57.985Z,100.00
2023-04-15T16:41:28.350Z,100.00
2023-04-15T16:43:59.977Z,100.00
2023-04-15T16:46:30.291Z,100.00
2023-04-15T16:49:01.018Z,100.00
2023-04-15T16:51:34.912Z,100.00
2023-04-15T16:54:05.129Z,100.00
2023-04-15T16:56:35.334Z,100.00
2023-04-15T16:59:05.991Z,100.00
2023-04-15T17:01:36.549Z,100.00
2023-04-15T17:04:07.052Z,100.00
2023-04-15T17:06:39.956Z,100.00
2023-04-15T17:09:10.214Z,100.00
2023-04-15T17:11:40.894Z,100.00
2023-04-15T17:14:11.366Z,100.00
2023-04-15T17:16:42.170Z,100.00
2023-04-15T17:19:12.470Z,100.00
2023-04-15T17:21:45.470Z,100.00
2023-04-15T17:24:15.957Z,100.00
2023-04-15T17:26:47.138Z,100.00
2023-04-15T17:29:17.699Z,100.00
2023-04-15T17:31:47.944Z,100.00
2023-04-15T17:34:18.360Z,100.00
2023-04-15T17:36:51.531Z,100.00
2023-04-15T17:39:21.930Z,100.00
2023-04-15T17:41:52.144Z,100.00
2023-04-15T17:44:24.627Z,100.00
2023-04-15T17:46:55.539Z,100.00
2023-04-15T17:49:26.177Z,100.00
2023-04-15T17:51:59.029Z,100.00
2023-04-15T17:54:29.376Z,100.00
2023-04-15T17:57:00.346Z,100.00
2023-04-15T17:59:30.827Z,100.00
2023-04-15T18:02:01.246Z,100.00
2023-04-15T18:04:31.770Z,100.00
2023-04-15T18:07:04.789Z,100.00
2023-04-15T18:09:35.266Z,100.00
2023-04-15T18:12:07.797Z,100.00
2023-04-15T18:14:38.189Z,100.00
2023-04-15T18:17:08.429Z,100.00
2023-04-15T18:19:38.780Z,100.00
2023-04-15T18:22:11.744Z,100.00
2023-04-15T18:24:41.979Z,100.00
2023-04-15T18:27:12.322Z,100.00
2023-04-15T18:29:43.038Z,100.00
2023-04-15T18:32:13.628Z,100.00
2023-04-15T18:34:45.093Z,100.00
2023-04-15T18:37:18.034Z,100.00
2023-04-15T18:39:48.360Z,100.00
2023-04-15T18:42:18.612Z,100.00
2023-04-15T18:44:48.869Z,100.00
2023-04-15T18:47:19.294Z,100.00
2023-04-15T18:49:49.548Z,100.00
2023-04-15T18:52:22.501Z,100.00
2023-04-15T18:54:52.792Z,100.00
2023-04-15T18:57:31.340Z,100.00
2023-04-15T19:00:03.726Z,100.00
2023-04-15T19:02:34.039Z,100.00
2023-04-15T19:05:04.660Z,100.00
2023-04-15T19:07:38.528Z,100.00
2023-04-15T19:10:09.225Z,100.00
2023-04-15T19:12:40.316Z,100.00
2023-04-15T19:15:11.146Z,100.00
2023-04-15T19:17:41.449Z,100.00
2023-04-15T19:20:12.019Z,100.00
2023-04-15T19:22:44.982Z,100.00
2023-04-15T19:25:15.266Z,100.00
2023-04-15T19:27:45.596Z,100.00
2023-04-15T19:30:16.613Z,100.00
2023-04-15T19:32:46.873Z,100.00
2023-04-15T19:35:17.309Z,100.00
2023-04-15T19:37:50.502Z,100.00
2023-04-15T19:40:20.753Z,100.00
2023-04-15T19:42:50.987Z,100.00
2023-04-15T19:45:21.203Z,100.00
2023-04-15T19:47:51.553Z,100.00
2023-04-15T19:50:26.076Z,100.00
2023-04-15T19:52:58.908Z,100.00
2023-04-15T19:55:29.165Z,100.00
2023-04-15T19:57:59.442Z,100.00
2023-04-15T20:00:29.817Z,100.00
2023-04-15T20:03:00.299Z,100.00
2023-04-15T20:05:30.722Z,100.00
2023-04-15T20:08:03.755Z,100.00
2023-04-15T20:10:35.441Z,100.00
2023-04-15T20:13:05.815Z,100.00
2023-04-15T20:15:36.071Z,100.00
2023-04-15T20:18:06.416Z,100.00
2023-04-15T20:20:37.046Z,100.00
2023-04-15T20:23:09.902Z,100.00
2023-04-15T20:25:40.139Z,100.00
2023-04-15T20:28:10.450Z,100.00
2023-04-15T20:30:41.053Z,100.00
2023-04-15T20:33:11.278Z,100.00
2023-04-15T20:35:41.837Z,100.00
2023-04-15T20:38:16.021Z,100.00
2023-04-15T20:40:46.285Z,100.00
2023-04-15T20:43:16.609Z,100.00
2023-04-15T20:45:46.805Z,100.00
2023-04-15T20:48:17.169Z,100.00
2023-04-15T20:50:47.449Z,100.00
2023-04-15T20:53:20.356Z,100.00
2023-04-15T20:55:50.681Z,100.00
2023-04-15T20:58:20.876Z,100.00
2023-04-15T21:00:53.646Z,100.00
2023-04-15T21:03:25.628Z,100.00
2023-04-15T21:05:56.222Z,100.00
2023-04-15T21:08:29.758Z,100.00
2023-04-15T21:11:00.152Z,100.00
2023-04-15T21:13:30.527Z,100.00
2023-04-15T21:16:00.828Z,100.00
2023-04-15T21:18:31.157Z,100.00
2023-04-15T21:21:01.827Z,100.00
2023-04-15T21:23:36.019Z,100.00
2023-04-15T21:26:06.261Z,100.00
2023-04-15T21:28:37.311Z,100.00
2023-04-15T21:31:07.772Z,100.00
2023-04-15T21:33:38.043Z,100.00
2023-04-15T21:36:08.534Z,100.00
2023-04-15T21:38:41.499Z,100.00
2023-04-15T21:41:12.338Z,100.00
2023-04-15T21:43:42.530Z,100.00
2023-04-15T21:46:21.965Z,100.00
2023-04-15T21:48:55.399Z,100.00
2023-04-15T21:51:25.945Z,100.00
2023-04-15T21:53:58.804Z,100.00
2023-04-15T21:56:29.233Z,100.00
2023-04-15T21:59:00.261Z,100.00
2023-04-15T22:01:30.923Z,100.00
2023-04-15T22:04:01.394Z,100.00
2023-04-15T22:06:31.840Z,100.00
2023-04-15T22:09:04.697Z,100.00
2023-04-15T22:11:34.906Z,100.00
2023-04-15T22:14:05.569Z,100.00
2023-04-15T22:16:35.870Z,100.00
2023-04-15T22:19:06.578Z,100.00
2023-04-15T22:21:37.123Z,100.00
2023-04-15T22:24:34.843Z,100.00
2023-04-15T22:27:02.917Z,100.00
2023-04-15T22:29:33.262Z,100.00
2023-04-15T22:32:03.654Z,100.00
2023-04-15T22:34:33.874Z,100.00
2023-04-15T22:37:04.225Z,100.00
2023-04-15T22:39:37.087Z,100.00
2023-04-15T22:42:07.317Z,100.00
2023-04-15T22:44:37.667Z,100.00
2023-04-15T22:47:07.940Z,100.00
2023-04-15T22:49:38.178Z,100.00
2023-04-15T22:52:10.451Z,100.00
2023-04-15T22:54:45.230Z,100.00
2023-04-15T22:57:15.647Z,100.00
2023-04-15T22:59:45.865Z,100.00
2023-04-15T23:02:16.217Z,100.00
2023-04-15T23:04:46.739Z,100.00
2023-04-15T23:07:17.147Z,100.00
2023-04-15T23:09:50.068Z,100.00
2023-04-15T23:12:20.438Z,100.00
2023-04-15T23:14:50.880Z,100.00
2023-04-15T23:17:21.162Z,100.00
2023-04-15T23:19:51.817Z,100.00
2023-04-15T23:22:22.100Z,100.00
2023-04-15T23:24:55.002Z,100.00
2023-04-15T23:27:25.238Z,100.00
2023-04-15T23:29:55.546Z,100.00
2023-04-15T23:32:26.732Z,100.00
2023-04-15T23:34:57.188Z,100.00
2023-04-15T23:37:27.451Z,100.00
2023-04-15T23:40:00.396Z,100.00
2023-04-15T23:42:30.834Z,100.00
2023-04-15T23:45:01.173Z,100.00
2023-04-15T23:47:31.461Z,100.00
2023-04-15T23:50:01.941Z,100.00
2023-04-15T23:52:32.229Z,100.00
2023-04-15T23:55:05.434Z,100.00
2023-04-15T23:57:35.658Z,100.00
